createdAt,value
2024-01-11T00:00:27.843Z,20.80
2024-01-11T00:01:28.090Z,18.80
2024-01-11T00:02:28.374Z,16.00
2024-01-11T00:03:28.624Z,17.70
2024-01-11T00:04:28.950Z,18.10
2024-01-11T00:05:29.308Z,20.20
2024-01-11T00:06:29.581Z,18.00
2024-01-11T00:07:29.804Z,17.70
2024-01-11T00:08:30.111Z,18.80
2024-01-11T00:09:30.328Z,16.90
2024-01-11T00:10:30.620Z,18.90
2024-01-11T00:11:30.936Z,17.80
2024-01-11T00:12:31.188Z,19.30
2024-01-11T00:13:31.451Z,17.10
2024-01-11T00:14:31.812Z,16.70
2024-01-11T00:15:32.103Z,18.30
2024-01-11T00:16:32.355Z,17.90
2024-01-11T00:17:32.691Z,16.30
2024-01-11T00:18:33.017Z,18.90
2024-01-11T00:19:33.298Z,17.50
2024-01-11T00:20:33.575Z,17.80
2024-01-11T00:21:33.826Z,19.60
2024-01-11T00:22:34.095Z,18.90
2024-01-11T00:23:34.495Z,17.90
2024-01-11T00:24:39.366Z,17.90
2024-01-11T00:25:35.897Z,18.40
2024-01-11T00:26:35.392Z,17.90
2024-01-11T00:27:35.461Z,17.90
2024-01-11T00:28:35.737Z,15.50
2024-01-11T00:29:36.093Z,17.70
2024-01-11T00:30:36.328Z,17.10
2024-01-11T00:31:36.571Z,17.30
2024-01-11T00:32:36.956Z,18.40
2024-01-11T00:33:37.252Z,17.50
2024-01-11T00:34:37.679Z,18.10
2024-01-11T00:35:38.022Z,18.60
2024-01-11T00:36:38.026Z,19.20
2024-01-11T00:37:38.268Z,18.50
2024-01-11T00:38:38.589Z,17.40
2024-01-11T00:39:38.836Z,17.50
2024-01-11T00:40:39.120Z,17.90
2024-01-11T00:41:39.430Z,16.30
2024-01-11T00:42:39.666Z,17.90
2024-01-11T00:43:39.921Z,18.60
2024-01-11T00:44:40.265Z,17.40
2024-01-11T00:45:40.487Z,19.30
2024-01-11T00:46:40.823Z,18.30
2024-01-11T00:47:41.103Z,18.50
2024-01-11T00:48:41.385Z,18.80
2024-01-11T00:49:41.696Z,18.70
2024-01-11T00:50:42.093Z,18.70
2024-01-11T00:51:42.170Z,19.30
2024-01-11T00:52:42.469Z,18.40
2024-01-11T00:53:42.755Z,17.30
2024-01-11T00:54:43.017Z,18.20
2024-01-11T00:55:43.293Z,18.40
2024-01-11T00:56:43.633Z,20.30
2024-01-11T00:57:43.876Z,18.50
2024-01-11T00:58:44.141Z,18.10
2024-01-11T00:59:44.405Z,16.50
2024-01-11T01:00:44.761Z,17.80
2024-01-11T01:01:44.982Z,16.80
2024-01-11T01:02:45.295Z,17.10
2024-01-11T01:03:45.596Z,18.00
2024-01-11T01:04:45.859Z,17.90
2024-01-11T01:05:46.316Z,16.60
2024-01-11T01:06:46.569Z,17.30
2024-01-11T01:07:46.699Z,17.20
2024-01-11T01:08:46.972Z,17.70
2024-01-11T01:09:48.193Z,17.30
2024-01-11T01:10:47.535Z,16.30
2024-01-11T01:11:47.803Z,20.20
2024-01-11T01:12:48.055Z,16.90
2024-01-11T01:13:48.339Z,17.70
2024-01-11T01:14:48.600Z,17.30
2024-01-11T01:15:48.878Z,17.70
2024-01-11T01:16:49.144Z,18.10
2024-01-11T01:17:49.541Z,17.00
2024-01-11T01:18:49.804Z,18.60
2024-01-11T01:19:50.024Z,17.00
2024-01-11T01:20:50.321Z,18.70
2024-01-11T01:21:50.568Z,17.30
2024-01-11T01:22:50.838Z,18.40
2024-01-11T01:23:51.102Z,16.30
2024-01-11T01:24:51.403Z,17.00
2024-01-11T01:25:51.650Z,17.20
2024-01-11T01:26:51.933Z,18.20
2024-01-11T01:27:52.168Z,18.20
2024-01-11T01:28:52.488Z,18.30
2024-01-11T01:29:52.726Z,17.40
2024-01-11T01:30:53.141Z,18.10
2024-01-11T01:31:53.299Z,18.40
2024-01-11T01:32:53.713Z,17.90
2024-01-11T01:33:54.016Z,16.60
2024-01-11T01:34:54.195Z,17.10
2024-01-11T01:35:54.410Z,18.70
2024-01-11T01:36:54.687Z,16.40
2024-01-11T01:37:55.012Z,17.60
2024-01-11T01:38:55.298Z,18.00
2024-01-11T01:39:55.552Z,18.70
2024-01-11T01:40:55.848Z,17.30
2024-01-11T01:41:56.060Z,17.50
2024-01-11T01:42:56.328Z,18.60
2024-01-11T01:43:56.636Z,18.40
2024-01-11T01:44:56.871Z,18.20
2024-01-11T01:45:57.137Z,17.40
2024-01-11T01:46:57.494Z,15.80
2024-01-11T01:47:57.838Z,16.10
2024-01-11T01:48:58.006Z,18.10
2024-01-11T01:49:58.372Z,16.90
2024-01-11T01:50:58.564Z,15.70
2024-01-11T01:51:58.825Z,16.90
2024-01-11T01:52:59.093Z,18.60
2024-01-11T01:53:59.356Z,17.00
2024-01-11T01:54:59.617Z,18.60
2024-01-11T01:55:59.904Z,16.40
2024-01-11T01:57:00.179Z,16.80
2024-01-11T01:58:00.429Z,16.30
2024-01-11T01:59:00.729Z,17.30
2024-01-11T02:00:00.960Z,16.70
2024-01-11T02:01:01.264Z,16.70
2024-01-11T02:02:01.530Z,14.90
2024-01-11T02:03:01.832Z,16.80
2024-01-11T02:04:02.094Z,17.10
2024-01-11T02:05:02.437Z,18.30
2024-01-11T02:06:02.668Z,16.00
2024-01-11T02:07:02.958Z,17.20
2024-01-11T02:08:03.251Z,15.90
2024-01-11T02:09:03.499Z,17.60
2024-01-11T02:10:03.775Z,17.90
2024-01-11T02:11:04.053Z,15.20
2024-01-11T02:12:04.303Z,16.30
2024-01-11T02:13:07.015Z,16.00
2024-01-11T02:14:04.937Z,15.90
2024-01-11T02:15:05.205Z,16.30
2024-01-11T02:16:05.486Z,16.70
2024-01-11T02:17:05.835Z,15.80
2024-01-11T02:18:06.230Z,16.60
2024-01-11T02:19:06.380Z,16.30
2024-01-11T02:20:06.647Z,16.10
2024-01-11T02:21:06.904Z,16.30
2024-01-11T02:22:07.171Z,16.10
2024-01-11T02:23:07.463Z,15.80
2024-01-11T02:24:07.699Z,15.50
2024-01-11T02:25:08.001Z,15.60
2024-01-11T02:26:08.275Z,17.10
2024-01-11T02:27:08.536Z,15.90
2024-01-11T02:28:08.802Z,15.80
2024-01-11T02:29:09.140Z,15.90
2024-01-11T02:30:09.386Z,15.70
2024-01-11T02:31:09.648Z,15.80
2024-01-11T02:32:10.020Z,15.60
2024-01-11T02:33:10.386Z,16.60
2024-01-11T02:34:10.534Z,15.30
2024-01-11T02:35:10.804Z,15.90
2024-01-11T02:36:11.051Z,16.30
2024-01-11T02:37:11.328Z,17.60
2024-01-11T02:38:11.626Z,17.10
2024-01-11T02:39:11.878Z,16.90
2024-01-11T02:40:12.208Z,14.80
2024-01-11T02:41:12.517Z,17.10
2024-01-11T02:42:12.770Z,15.20
2024-01-11T02:43:13.027Z,16.80
2024-01-11T02:44:13.317Z,15.20
2024-01-11T02:45:13.726Z,16.30
2024-01-11T02:46:13.774Z,16.00
2024-01-11T02:47:14.068Z,16.80
2024-01-11T02:48:14.370Z,15.90
2024-01-11T02:49:14.809Z,18.00
2024-01-11T02:50:15.001Z,15.30
2024-01-11T02:51:15.265Z,17.60
2024-01-11T02:52:15.534Z,16.30
2024-01-11T02:53:15.853Z,15.30
2024-01-11T02:54:16.087Z,15.30
2024-01-11T02:55:16.407Z,15.90
2024-01-11T02:56:16.688Z,15.00
2024-01-11T02:57:16.961Z,15.80
2024-01-11T02:58:17.225Z,16.00
2024-01-11T02:59:17.518Z,16.50
2024-01-11T03:00:17.765Z,15.80
2024-01-11T03:01:18.117Z,15.10
2024-01-11T03:02:18.372Z,15.10
2024-01-11T03:03:18.640Z,16.00
2024-01-11T03:04:18.895Z,14.60
2024-01-11T03:05:19.206Z,15.80
2024-01-11T03:06:19.450Z,16.00
2024-01-11T03:07:19.708Z,15.70
2024-01-11T03:08:20.009Z,16.00
2024-01-11T03:09:20.322Z,16.20
2024-01-11T03:10:20.581Z,16.70
2024-01-11T03:11:20.901Z,15.50
2024-01-11T03:12:21.143Z,15.40
2024-01-11T03:13:21.408Z,15.80
2024-01-11T03:14:21.773Z,16.00
2024-01-11T03:15:22.022Z,16.70
2024-01-11T03:16:22.268Z,16.80
2024-01-11T03:17:22.839Z,15.10
2024-01-11T03:18:23.008Z,15.10
2024-01-11T03:19:23.206Z,17.10
2024-01-11T03:20:23.357Z,15.70
2024-01-11T03:21:23.621Z,15.20
2024-01-11T03:22:23.880Z,15.40
2024-01-11T03:23:24.173Z,15.40
2024-01-11T03:24:24.418Z,15.10
2024-01-11T03:25:24.698Z,15.30
2024-01-11T03:26:24.980Z,14.40
2024-01-11T03:27:25.237Z,15.20
2024-01-11T03:28:25.499Z,15.30
2024-01-11T03:29:25.821Z,15.60
2024-01-11T03:30:26.058Z,14.90
2024-01-11T03:31:26.316Z,15.40
2024-01-11T03:32:26.672Z,16.20
2024-01-11T03:33:27.057Z,15.20
2024-01-11T03:34:27.321Z,15.80
2024-01-11T03:35:27.548Z,15.70
2024-01-11T03:36:27.761Z,15.30
2024-01-11T03:37:28.099Z,14.30
2024-01-11T03:38:28.347Z,15.20
2024-01-11T03:39:28.613Z,14.50
2024-01-11T03:40:28.880Z,14.80
2024-01-11T03:41:29.162Z,15.00
2024-01-11T03:42:29.420Z,15.70
2024-01-11T03:43:29.707Z,16.50
2024-01-11T03:44:29.975Z,15.40
2024-01-11T03:45:30.232Z,14.60
2024-01-11T03:46:30.514Z,15.40
2024-01-11T03:47:31.808Z,16.10
2024-01-11T03:48:31.053Z,14.20
2024-01-11T03:49:31.333Z,15.10
2024-01-11T03:50:31.599Z,15.20
2024-01-11T03:51:31.853Z,15.20
2024-01-11T03:52:32.108Z,15.70
2024-01-11T03:53:32.425Z,15.20
2024-01-11T03:54:32.661Z,15.50
2024-01-11T03:55:32.936Z,15.40
2024-01-11T03:56:33.638Z,14.90
2024-01-11T03:57:33.521Z,14.10
2024-01-11T03:58:33.855Z,15.00
2024-01-11T03:59:34.068Z,14.90
2024-01-11T04:00:34.365Z,14.90
2024-01-11T04:01:36.276Z,14.90
2024-01-11T04:02:34.929Z,14.30
2024-01-11T04:03:35.193Z,14.70
2024-01-11T04:04:35.439Z,15.60
2024-01-11T04:05:35.797Z,16.50
2024-01-11T04:06:36.088Z,15.80
2024-01-11T04:07:36.342Z,13.60
2024-01-11T04:08:36.635Z,15.60
2024-01-11T04:09:36.915Z,14.80
2024-01-11T04:10:37.176Z,14.00
2024-01-11T04:11:37.494Z,16.20
2024-01-11T04:12:37.728Z,15.30
2024-01-11T04:13:38.002Z,15.30
2024-01-11T04:14:38.429Z,14.80
2024-01-11T04:15:38.559Z,14.70
2024-01-11T04:16:39.604Z,15.60
2024-01-11T04:17:39.184Z,13.70
2024-01-11T04:18:39.528Z,14.40
2024-01-11T04:19:39.650Z,14.20
2024-01-11T04:20:39.905Z,15.40
2024-01-11T04:21:40.179Z,14.00
2024-01-11T04:22:40.435Z,14.70
2024-01-11T04:23:40.828Z,15.40
2024-01-11T04:24:40.968Z,15.30
2024-01-11T04:25:41.254Z,15.20
2024-01-11T04:26:41.666Z,13.50
2024-01-11T04:27:41.783Z,15.10
2024-01-11T04:28:42.024Z,15.50
2024-01-11T04:29:42.472Z,15.40
2024-01-11T04:30:42.690Z,15.00
2024-01-11T04:31:43.554Z,15.80
2024-01-11T04:32:43.286Z,15.50
2024-01-11T04:33:43.765Z,15.50
2024-01-11T04:34:43.879Z,16.30
2024-01-11T04:35:44.177Z,15.10
2024-01-11T04:36:44.446Z,14.20
2024-01-11T04:37:44.746Z,14.60
2024-01-11T04:38:45.003Z,14.70
2024-01-11T04:39:45.259Z,13.70
2024-01-11T04:40:45.521Z,14.10
2024-01-11T04:41:45.937Z,15.50
2024-01-11T04:42:46.138Z,14.30
2024-01-11T04:43:46.414Z,15.00
2024-01-11T04:44:46.691Z,14.00
2024-01-11T04:45:46.946Z,15.30
2024-01-11T04:46:47.694Z,15.20
2024-01-11T04:47:47.851Z,14.30
2024-01-11T04:48:47.856Z,14.80
2024-01-11T04:49:48.101Z,15.40
2024-01-11T04:50:48.438Z,14.40
2024-01-11T04:51:48.691Z,13.70
2024-01-11T04:52:48.949Z,15.10
2024-01-11T04:53:49.221Z,13.60
2024-01-11T04:54:49.494Z,15.80
2024-01-11T04:55:49.751Z,15.60
2024-01-11T04:56:52.463Z,14.90
2024-01-11T04:57:50.348Z,14.10
2024-01-11T04:58:50.598Z,14.50
2024-01-11T04:59:50.903Z,14.60
2024-01-11T05:00:51.207Z,14.40
2024-01-11T05:01:51.490Z,14.00
2024-01-11T05:02:51.787Z,13.00
2024-01-11T05:03:52.059Z,14.90
2024-01-11T05:04:52.319Z,14.20
2024-01-11T05:05:52.640Z,13.80
2024-01-11T05:06:53.043Z,14.00
2024-01-11T05:07:53.187Z,14.10
2024-01-11T05:08:53.539Z,14.00
2024-01-11T05:09:53.746Z,13.30
2024-01-11T05:10:54.032Z,14.00
2024-01-11T05:11:54.284Z,13.40
2024-01-11T05:12:54.560Z,15.20
2024-01-11T05:13:54.931Z,13.50
2024-01-11T05:14:55.162Z,13.70
2024-01-11T05:15:55.415Z,13.20
2024-01-11T05:16:55.761Z,15.10
2024-01-11T05:17:56.149Z,14.00
2024-01-11T05:18:56.341Z,14.90
2024-01-11T05:19:56.614Z,14.00
2024-01-11T05:20:56.868Z,13.30
2024-01-11T05:21:57.118Z,14.80
2024-01-11T05:22:57.450Z,14.00
2024-01-11T05:23:57.699Z,14.30
2024-01-11T05:24:57.962Z,13.50
2024-01-11T05:25:58.229Z,12.50
2024-01-11T05:26:58.490Z,13.80
2024-01-11T05:27:58.755Z,14.10
2024-01-11T05:28:59.126Z,13.70
2024-01-11T05:29:59.402Z,14.20
2024-01-11T05:30:59.797Z,13.80
2024-01-11T05:32:00.113Z,14.00
2024-01-11T05:33:00.430Z,13.00
2024-01-11T05:34:00.761Z,15.10
2024-01-11T05:35:00.878Z,13.20
2024-01-11T05:36:01.129Z,13.20
2024-01-11T05:37:01.416Z,14.20
2024-01-11T05:38:01.711Z,13.00
2024-01-11T05:39:01.938Z,13.10
2024-01-11T05:40:02.205Z,13.80
2024-01-11T05:41:02.493Z,12.60
2024-01-11T05:42:02.747Z,11.70
2024-01-11T05:43:03.027Z,13.90
2024-01-11T05:44:03.306Z,13.10
2024-01-11T05:45:03.544Z,14.60
2024-01-11T05:46:03.817Z,13.50
2024-01-11T05:47:04.122Z,13.40
2024-01-11T05:48:04.478Z,15.20
2024-01-11T05:49:04.774Z,12.80
2024-01-11T05:50:05.016Z,13.10
2024-01-11T05:51:05.275Z,13.40
2024-01-11T05:52:05.546Z,12.20
2024-01-11T05:53:05.864Z,13.60
2024-01-11T05:54:06.096Z,14.00
2024-01-11T05:55:06.382Z,13.60
2024-01-11T05:56:06.628Z,12.00
2024-01-11T05:57:06.881Z,13.10
2024-01-11T05:58:07.130Z,12.50
2024-01-11T05:59:07.451Z,12.30
2024-01-11T06:00:07.696Z,13.20
2024-01-11T06:01:08.262Z,13.10
2024-01-11T06:02:08.250Z,12.90
2024-01-11T06:03:08.541Z,13.10
2024-01-11T06:04:08.769Z,12.80
2024-01-11T06:05:09.096Z,12.40
2024-01-11T06:06:10.003Z,12.80
2024-01-11T06:07:09.630Z,13.70
2024-01-11T06:08:09.970Z,12.20
2024-01-11T06:09:10.198Z,13.00
2024-01-11T06:10:10.459Z,12.70
2024-01-11T06:11:10.758Z,11.60
2024-01-11T06:12:10.982Z,12.60
2024-01-11T06:13:11.250Z,13.80
2024-01-11T06:14:11.544Z,13.50
2024-01-11T06:15:11.786Z,13.50
2024-01-11T06:16:13.511Z,13.40
2024-01-11T06:17:12.484Z,14.70
2024-01-11T06:18:12.782Z,14.80
2024-01-11T06:19:13.054Z,14.20
2024-01-11T06:20:13.215Z,13.40
2024-01-11T06:21:13.454Z,12.30
2024-01-11T06:22:13.717Z,13.30
2024-01-11T06:23:14.007Z,12.20
2024-01-11T06:24:14.267Z,12.60
2024-01-11T06:25:15.461Z,12.50
2024-01-11T06:26:14.804Z,13.10
2024-01-11T06:27:15.029Z,12.80
2024-01-11T06:28:15.310Z,12.60
2024-01-11T06:29:15.569Z,12.30
2024-01-11T06:30:15.893Z,12.40
2024-01-11T06:31:16.138Z,12.70
2024-01-11T06:32:16.410Z,12.40
2024-01-11T06:33:16.752Z,12.60
2024-01-11T06:34:16.996Z,13.30
2024-01-11T06:35:17.229Z,12.40
2024-01-11T06:36:17.459Z,12.10
2024-01-11T06:37:17.730Z,12.10
2024-01-11T06:38:18.044Z,12.80
2024-01-11T06:39:18.261Z,13.90
2024-01-11T06:40:18.521Z,11.20
2024-01-11T06:41:18.799Z,12.40
2024-01-11T06:42:19.989Z,12.00
2024-01-11T06:43:19.319Z,12.40
2024-01-11T06:44:19.586Z,13.20
2024-01-11T06:45:19.815Z,12.30
2024-01-11T06:46:20.055Z,11.80
2024-01-11T06:47:20.404Z,12.00
2024-01-11T06:48:20.831Z,11.60
2024-01-11T06:49:21.105Z,12.20
2024-01-11T06:50:21.236Z,12.70
2024-01-11T06:51:21.469Z,11.20
2024-01-11T06:52:21.719Z,12.00
2024-01-11T06:53:22.000Z,11.70
2024-01-11T06:54:22.221Z,13.60
2024-01-11T06:55:22.513Z,12.90
2024-01-11T06:56:22.838Z,11.00
2024-01-11T06:57:23.070Z,12.30
2024-01-11T06:58:23.325Z,12.50
2024-01-11T06:59:24.743Z,11.00
2024-01-11T07:00:23.811Z,12.50
2024-01-11T07:01:24.090Z,12.30
2024-01-11T07:02:24.335Z,12.40
2024-01-11T07:03:24.610Z,10.50
2024-01-11T07:04:24.848Z,11.50
2024-01-11T07:05:25.215Z,13.10
2024-01-11T07:06:25.366Z,14.20
2024-01-11T07:07:25.620Z,12.10
2024-01-11T07:08:25.971Z,11.90
2024-01-11T07:09:26.189Z,11.70
2024-01-11T07:10:26.436Z,12.10
2024-01-11T07:11:26.755Z,13.20
2024-01-11T07:12:26.980Z,12.70
2024-01-11T07:13:27.742Z,11.80
2024-01-11T07:14:27.585Z,12.00
2024-01-11T07:15:27.800Z,12.70
2024-01-11T07:16:28.047Z,11.70
2024-01-11T07:17:28.406Z,11.60
2024-01-11T07:18:28.747Z,11.60
2024-01-11T07:19:28.984Z,11.50
2024-01-11T07:20:29.209Z,11.80
2024-01-11T07:21:29.471Z,11.60
2024-01-11T07:22:29.725Z,11.50
2024-01-11T07:23:30.027Z,11.70
2024-01-11T07:24:30.262Z,11.00
2024-01-11T07:25:30.519Z,10.50
2024-01-11T07:26:30.818Z,12.70
2024-01-11T07:27:31.031Z,11.20
2024-01-11T07:28:31.277Z,10.60
2024-01-11T07:29:31.550Z,12.00
2024-01-11T07:30:31.816Z,12.50
2024-01-11T07:31:32.052Z,10.80
2024-01-11T07:32:32.416Z,11.70
2024-01-11T07:33:32.681Z,12.80
2024-01-11T07:34:32.858Z,11.40
2024-01-11T07:35:33.156Z,11.40
2024-01-11T07:36:33.372Z,12.30
2024-01-11T07:37:33.626Z,11.60
2024-01-11T07:38:33.935Z,11.90
2024-01-11T07:39:34.169Z,11.60
2024-01-11T07:40:36.415Z,11.30
2024-01-11T07:41:34.787Z,11.80
2024-01-11T07:42:35.017Z,12.30
2024-01-11T07:43:41.683Z,11.80
2024-01-11T07:44:36.577Z,11.90
2024-01-11T07:45:35.853Z,12.80
2024-01-11T07:46:42.269Z,10.40
2024-01-11T07:47:37.463Z,11.20
2024-01-11T07:48:36.693Z,11.20
2024-01-11T07:49:37.015Z,11.20
2024-01-11T07:50:37.278Z,11.60
2024-01-11T07:51:37.505Z,11.40
2024-01-11T07:52:37.779Z,11.80
2024-01-11T07:53:38.124Z,11.20
2024-01-11T07:54:38.325Z,11.40
2024-01-11T07:55:38.592Z,12.70
2024-01-11T07:56:39.064Z,11.60
2024-01-11T07:57:39.093Z,12.20
2024-01-11T07:58:39.383Z,12.60
2024-01-11T07:59:39.706Z,13.40
2024-01-11T08:00:39.982Z,11.60
2024-01-11T08:01:40.236Z,11.60
2024-01-11T08:02:40.882Z,10.60
2024-01-11T08:03:40.818Z,13.00
2024-01-11T08:04:41.070Z,12.10
2024-01-11T08:05:41.456Z,11.40
2024-01-11T08:06:41.725Z,12.10
2024-01-11T08:07:41.969Z,11.60
2024-01-11T08:08:42.434Z,13.10
2024-01-11T08:09:42.581Z,12.70
2024-01-11T08:10:42.837Z,13.90
2024-01-11T08:11:47.034Z,12.10
2024-01-11T08:12:44.404Z,10.90
2024-01-11T08:13:43.607Z,12.00
2024-01-11T08:14:43.996Z,11.90
2024-01-11T08:15:44.148Z,12.60
2024-01-11T08:16:44.429Z,13.60
2024-01-11T08:17:45.086Z,13.70
2024-01-11T08:18:45.002Z,10.80
2024-01-11T08:19:45.257Z,11.20
2024-01-11T08:20:45.576Z,11.80
2024-01-11T08:21:45.818Z,13.10
2024-01-11T08:22:46.102Z,11.30
2024-01-11T08:23:47.333Z,12.10
2024-01-11T08:24:46.644Z,13.30
2024-01-11T08:25:46.969Z,11.50
2024-01-11T08:26:47.309Z,11.80
2024-01-11T08:27:47.450Z,10.50
2024-01-11T08:28:47.729Z,11.10
2024-01-11T08:29:48.154Z,13.50
2024-01-11T08:30:48.359Z,11.20
2024-01-11T08:31:48.521Z,14.60
2024-01-11T08:32:48.860Z,11.90
2024-01-11T08:33:49.234Z,12.10
2024-01-11T08:34:49.508Z,12.00
2024-01-11T08:35:49.666Z,10.40
2024-01-11T08:36:49.958Z,12.40
2024-01-11T08:37:50.229Z,11.80
2024-01-11T08:38:50.569Z,12.60
2024-01-11T08:39:50.917Z,10.70
2024-01-11T08:40:51.176Z,12.10
2024-01-11T08:41:51.464Z,12.10
2024-01-11T08:42:51.731Z,11.20
2024-01-11T08:43:52.022Z,11.50
2024-01-11T08:44:52.347Z,12.30
2024-01-11T08:45:52.617Z,11.00
2024-01-11T08:46:52.924Z,12.00
2024-01-11T08:47:53.333Z,11.90
2024-01-11T08:48:53.628Z,11.40
2024-01-11T08:49:53.880Z,11.60
2024-01-11T08:50:54.209Z,10.90
2024-01-11T08:51:54.478Z,12.30
2024-01-11T08:52:54.978Z,11.30
2024-01-11T08:53:55.086Z,12.10
2024-01-11T08:54:55.363Z,11.10
2024-01-11T08:55:55.656Z,11.40
2024-01-11T08:56:55.928Z,12.00
2024-01-11T08:57:56.192Z,11.90
2024-01-11T08:58:56.497Z,10.40
2024-01-11T08:59:56.767Z,11.20
2024-01-11T09:00:57.087Z,10.90
2024-01-11T09:02:06.295Z,10.70
2024-01-11T09:02:59.215Z,12.10
2024-01-11T09:03:57.904Z,10.40
2024-01-11T09:04:58.185Z,10.20
2024-01-11T09:05:58.638Z,13.60
2024-01-11T09:06:58.852Z,11.90
2024-01-11T09:07:59.148Z,12.80
2024-01-11T09:08:59.397Z,11.90
2024-01-11T09:09:59.665Z,10.60
2024-01-11T09:10:59.976Z,10.60
2024-01-11T09:12:00.244Z,12.00
2024-01-11T09:13:00.509Z,10.30
2024-01-11T09:14:00.845Z,13.60
2024-01-11T09:15:01.124Z,10.90
2024-01-11T09:16:01.404Z,12.00
2024-01-11T09:17:01.740Z,11.40
2024-01-11T09:18:02.190Z,11.20
2024-01-11T09:19:02.336Z,11.10
2024-01-11T09:20:02.502Z,10.20
2024-01-11T09:21:02.806Z,11.40
2024-01-11T09:22:03.171Z,10.20
2024-01-11T09:23:03.349Z,12.80
2024-01-11T09:24:03.590Z,10.50
2024-01-11T09:25:03.896Z,12.40
2024-01-11T09:26:04.229Z,13.00
2024-01-11T09:27:04.483Z,11.50
2024-01-11T09:28:04.772Z,10.80
2024-01-11T09:29:05.057Z,12.40
2024-01-11T09:30:05.456Z,13.00
2024-01-11T09:31:05.722Z,10.10
2024-01-11T09:32:05.850Z,12.90
2024-01-11T09:33:06.285Z,11.30
2024-01-11T09:34:06.506Z,12.20
2024-01-11T09:35:06.807Z,13.80
2024-01-11T09:36:07.053Z,12.30
2024-01-11T09:37:07.338Z,12.10
2024-01-11T09:38:07.646Z,11.10
2024-01-11T09:39:07.960Z,11.90
2024-01-11T09:40:08.233Z,11.30
2024-01-11T09:41:09.458Z,11.90
2024-01-11T09:42:08.732Z,10.60
2024-01-11T09:43:09.016Z,13.90
2024-01-11T09:44:09.350Z,10.80
2024-01-11T09:45:09.618Z,10.60
2024-01-11T09:46:09.881Z,12.80
2024-01-11T09:47:11.729Z,10.50
2024-01-11T09:48:10.509Z,12.10
2024-01-11T09:49:10.771Z,12.70
2024-01-11T09:50:10.972Z,11.90
2024-01-11T09:51:11.221Z,11.70
2024-01-11T09:52:11.504Z,13.00
2024-01-11T09:53:11.864Z,11.80
2024-01-11T09:54:12.018Z,11.30
2024-01-11T09:55:12.306Z,12.00
2024-01-11T09:56:12.618Z,12.00
2024-01-11T09:57:12.883Z,12.80
2024-01-11T09:58:13.184Z,11.70
2024-01-11T09:59:15.045Z,11.90
2024-01-11T10:00:13.663Z,10.70
2024-01-11T10:01:14.008Z,12.60
2024-01-11T10:02:14.288Z,11.70
2024-01-11T10:03:14.567Z,11.40
2024-01-11T10:04:14.942Z,11.80
2024-01-11T10:05:15.278Z,12.60
2024-01-11T10:06:15.522Z,11.50
2024-01-11T10:07:15.815Z,11.10
2024-01-11T10:08:16.066Z,12.20
2024-01-11T10:09:16.355Z,10.60
2024-01-11T10:10:16.957Z,10.90
2024-01-11T10:11:16.999Z,12.00
2024-01-11T10:12:17.235Z,11.40
2024-01-11T10:13:17.509Z,10.70
2024-01-11T10:14:17.877Z,10.10
2024-01-11T10:15:18.113Z,10.70
2024-01-11T10:16:18.379Z,12.70
2024-01-11T10:17:21.723Z,11.90
2024-01-11T10:18:20.106Z,12.00
2024-01-11T10:19:19.473Z,10.50
2024-01-11T10:20:19.584Z,13.20
2024-01-11T10:21:19.730Z,13.30
2024-01-11T10:22:20.381Z,13.40
2024-01-11T10:23:20.306Z,15.90
2024-01-11T10:24:20.551Z,11.70
2024-01-11T10:25:20.825Z,13.70
2024-01-11T10:26:21.110Z,12.00
2024-01-11T10:27:21.376Z,11.00
2024-01-11T10:28:21.650Z,12.20
2024-01-11T10:29:21.973Z,11.60
2024-01-11T10:30:22.277Z,11.80
2024-01-11T10:31:22.561Z,12.50
2024-01-11T10:32:22.855Z,11.30
2024-01-11T10:33:23.327Z,12.50
2024-01-11T10:34:23.464Z,12.50
2024-01-11T10:35:23.840Z,14.50
2024-01-11T10:36:23.962Z,11.10
2024-01-11T10:37:24.257Z,12.90
2024-01-11T10:38:24.532Z,13.10
2024-01-11T10:39:24.836Z,11.20
2024-01-11T10:40:25.141Z,11.40
2024-01-11T10:41:25.417Z,12.10
2024-01-11T10:42:25.696Z,14.80
2024-01-11T10:43:25.972Z,13.10
2024-01-11T10:44:26.664Z,11.30
2024-01-11T10:45:26.590Z,11.80
2024-01-11T10:46:26.865Z,12.00
2024-01-11T10:47:27.204Z,12.00
2024-01-11T10:48:27.557Z,12.70
2024-01-11T10:49:27.738Z,10.80
2024-01-11T10:50:28.019Z,12.60
2024-01-11T10:51:28.304Z,12.80
2024-01-11T10:52:28.578Z,11.70
2024-01-11T10:53:30.732Z,11.30
2024-01-11T10:54:29.107Z,11.90
2024-01-11T10:55:30.404Z,13.80
2024-01-11T10:56:29.660Z,11.70
2024-01-11T10:57:29.910Z,13.30
2024-01-11T10:58:30.197Z,12.80
2024-01-11T10:59:30.513Z,11.70
2024-01-11T11:00:30.794Z,11.60
2024-01-11T11:01:31.054Z,13.60
2024-01-11T11:02:31.430Z,12.40
2024-01-11T11:03:31.706Z,16.10
2024-01-11T11:04:31.960Z,12.20
2024-01-11T11:05:32.408Z,12.50
2024-01-11T11:06:32.627Z,12.40
2024-01-11T11:07:32.913Z,11.40
2024-01-11T11:08:33.256Z,12.10
2024-01-11T11:09:33.521Z,12.80
2024-01-11T11:10:33.821Z,14.20
2024-01-11T11:11:34.155Z,11.50
2024-01-11T11:12:34.395Z,13.90
2024-01-11T11:13:34.686Z,13.10
2024-01-11T11:14:35.015Z,12.30
2024-01-11T11:15:35.305Z,12.20
2024-01-11T11:16:35.586Z,13.60
2024-01-11T11:17:35.958Z,13.40
2024-01-11T11:18:36.798Z,12.80
2024-01-11T11:19:36.462Z,12.80
2024-01-11T11:20:36.870Z,15.00
2024-01-11T11:21:36.977Z,12.70
2024-01-11T11:22:37.299Z,15.20
2024-01-11T11:23:37.566Z,14.50
2024-01-11T11:24:37.862Z,12.50
2024-01-11T11:25:38.182Z,14.10
2024-01-11T11:26:38.508Z,12.70
2024-01-11T11:27:38.776Z,12.80
2024-01-11T11:28:39.032Z,13.90
2024-01-11T11:29:39.391Z,13.00
2024-01-11T11:30:39.760Z,13.70
2024-01-11T11:31:39.876Z,12.80
2024-01-11T11:32:40.398Z,11.90
2024-01-11T11:33:40.566Z,12.80
2024-01-11T11:34:40.804Z,12.70
2024-01-11T11:35:41.438Z,13.50
2024-01-11T11:36:41.387Z,15.40
2024-01-11T11:37:41.689Z,16.80
2024-01-11T11:38:42.053Z,15.10
2024-01-11T11:39:42.328Z,15.00
2024-01-11T11:40:42.654Z,13.40
2024-01-11T11:41:42.944Z,14.80
2024-01-11T11:42:43.196Z,14.10
2024-01-11T11:43:43.476Z,15.80
2024-01-11T11:44:43.857Z,12.60
2024-01-11T11:45:44.030Z,15.70
2024-01-11T11:46:44.308Z,17.70
2024-01-11T11:47:44.640Z,11.80
2024-01-11T11:48:44.979Z,13.20
2024-01-11T11:49:45.281Z,13.80
2024-01-11T11:50:45.480Z,17.20
2024-01-11T11:51:45.748Z,14.40
2024-01-11T11:52:46.031Z,14.50
2024-01-11T11:53:46.390Z,14.10
2024-01-11T11:54:46.664Z,13.70
2024-01-11T11:55:46.945Z,13.40
2024-01-11T11:56:47.375Z,13.20
2024-01-11T11:57:47.501Z,13.50
2024-01-11T11:58:47.781Z,12.10
2024-01-11T11:59:48.107Z,13.90
2024-01-11T12:00:48.442Z,14.30
2024-01-11T12:01:48.694Z,13.10
2024-01-11T12:02:49.017Z,12.60
2024-01-11T12:03:49.317Z,15.30
2024-01-11T12:04:49.626Z,15.70
2024-01-11T12:05:50.005Z,17.10
2024-01-11T12:06:50.372Z,15.10
2024-01-11T12:07:50.391Z,16.20
2024-01-11T12:08:51.076Z,13.40
2024-01-11T12:09:50.950Z,13.10
2024-01-11T12:10:51.234Z,13.80
2024-01-11T12:11:58.277Z,14.90
2024-01-11T12:12:52.807Z,13.70
2024-01-11T12:13:52.121Z,15.40
2024-01-11T12:14:52.434Z,14.00
2024-01-11T12:15:52.713Z,13.10
2024-01-11T12:16:53.007Z,15.00
2024-01-11T12:17:53.346Z,14.90
2024-01-11T12:18:53.718Z,14.80
2024-01-11T12:19:54.476Z,12.10
2024-01-11T12:20:54.200Z,14.30
2024-01-11T12:21:54.485Z,14.00
2024-01-11T12:22:54.800Z,13.50
2024-01-11T12:23:55.156Z,16.50
2024-01-11T12:24:55.450Z,17.40
2024-01-11T12:25:55.712Z,14.40
2024-01-11T12:26:57.074Z,14.30
2024-01-11T12:27:56.277Z,16.70
2024-01-11T12:28:56.608Z,14.70
2024-01-11T12:29:59.657Z,13.90
2024-01-11T12:30:57.270Z,17.70
2024-01-11T12:31:57.421Z,14.10
2024-01-11T12:32:57.836Z,16.60
2024-01-11T12:33:58.049Z,15.20
2024-01-11T12:34:58.318Z,18.60
2024-01-11T12:35:58.476Z,14.30
2024-01-11T12:36:58.785Z,14.00
2024-01-11T12:37:59.054Z,14.70
2024-01-11T12:38:59.465Z,14.80
2024-01-11T12:39:59.575Z,14.30
2024-01-11T12:40:59.872Z,17.60
2024-01-11T12:42:00.188Z,15.10
2024-01-11T12:43:00.475Z,16.90
2024-01-11T12:44:00.755Z,13.90
2024-01-11T12:45:01.140Z,15.50
2024-01-11T12:46:01.332Z,16.10
2024-01-11T12:47:01.725Z,14.30
2024-01-11T12:48:02.142Z,13.20
2024-01-11T12:49:02.444Z,14.90
2024-01-11T12:50:02.583Z,14.10
2024-01-11T12:51:10.931Z,14.50
2024-01-11T12:52:04.169Z,14.30
2024-01-11T12:53:03.564Z,17.40
2024-01-11T12:54:03.807Z,13.30
2024-01-11T12:55:04.156Z,15.90
2024-01-11T12:56:04.537Z,14.50